createdAt,value
2018-02-02T00:01:49.369Z,10.17
2018-02-02T00:04:17.202Z,5.73
2018-02-02T00:06:45.038Z,7.60
2018-02-02T00:09:12.742Z,6.70
2018-02-02T00:11:41.284Z,4.17
2018-02-02T00:14:08.945Z,4.20
2018-02-02T00:16:36.607Z,4.07
2018-02-02T00:19:04.140Z,4.53
2018-02-02T00:21:32.237Z,5.60
2018-02-02T00:23:59.946Z,5.60
2018-02-02T00:26:27.506Z,5.60
2018-02-02T00:28:55.873Z,6.90
2018-02-02T00:31:23.537Z,11.27
2018-02-02T00:33:51.261Z,7.73
2018-02-02T00:36:18.854Z,10.83
2018-02-02T00:38:46.382Z,9.30
2018-02-02T00:41:14.084Z,9.80
2018-02-02T00:43:41.945Z,11.63
2018-02-02T00:46:09.610Z,13.67
2018-02-02T00:48:37.230Z,15.77
2018-02-02T00:51:10.394Z,13.77
2018-02-02T00:53:38.085Z,6.10
2018-02-02T00:56:05.848Z,5.77
2018-02-02T00:58:33.613Z,5.33
2018-02-02T01:01:01.376Z,8.10
2018-02-02T01:03:29.112Z,5.53
2018-02-02T01:05:56.741Z,4.40
2018-02-02T01:08:25.030Z,4.50
2018-02-02T01:10:53.559Z,4.20
2018-02-02T01:13:21.266Z,4.60
2018-02-02T01:15:49.749Z,4.13
2018-02-02T01:18:18.285Z,4.70
2018-02-02T01:20:45.947Z,3.60
2018-02-02T01:23:13.711Z,4.00
2018-02-02T01:25:41.513Z,4.00
2018-02-02T01:28:09.278Z,4.07
2018-02-02T01:30:36.938Z,3.87
2018-02-02T01:33:04.598Z,3.67
2018-02-02T01:35:32.223Z,4.03
2018-02-02T01:37:59.758Z,4.33
2018-02-02T01:40:27.290Z,4.70
2018-02-02T01:42:55.823Z,4.20
2018-02-02T01:45:23.629Z,3.93
2018-02-02T01:48:04.705Z,4.10
2018-02-02T01:50:33.186Z,4.07
2018-02-02T01:53:00.908Z,3.60
2018-02-02T01:55:28.674Z,4.80
2018-02-02T01:57:56.377Z,4.03
2018-02-02T02:00:24.917Z,3.90
2018-02-02T02:02:52.826Z,4.00
2018-02-02T02:05:21.302Z,3.80
2018-02-02T02:07:49.148Z,4.60
2018-02-02T02:10:16.997Z,3.50
2018-02-02T02:12:44.761Z,3.33
2018-02-02T02:15:12.423Z,3.80
2018-02-02T02:17:40.085Z,4.37
2018-02-02T02:20:07.890Z,4.07
2018-02-02T02:22:36.393Z,3.93
2018-02-02T02:25:04.211Z,3.37
2018-02-02T02:27:31.806Z,4.00
2018-02-02T02:30:00.342Z,3.90
2018-02-02T02:32:28.042Z,3.73
2018-02-02T02:34:56.584Z,3.90
2018-02-02T02:37:24.348Z,4.20
2018-02-02T02:39:51.913Z,3.90
2018-02-02T02:42:19.672Z,3.60
2018-02-02T02:44:47.333Z,4.33
2018-02-02T02:47:14.994Z,4.67
2018-02-02T02:49:42.901Z,4.00
2018-02-02T02:52:10.625Z,4.90
2018-02-02T02:54:38.133Z,4.53
2018-02-02T02:57:06.610Z,4.90
2018-02-02T02:59:35.146Z,4.40
2018-02-02T03:02:02.910Z,5.00
2018-02-02T03:04:30.780Z,5.00
2018-02-02T03:06:58.482Z,4.93
2018-02-02T03:09:27.024Z,5.27
2018-02-02T03:11:54.646Z,5.00
2018-02-02T03:14:22.186Z,4.27
2018-02-02T03:16:50.666Z,4.50
2018-02-02T03:19:19.204Z,5.33
2018-02-02T03:21:46.968Z,4.70
2018-02-02T03:24:14.732Z,5.30
2018-02-02T03:26:42.499Z,5.40
2018-02-02T03:29:10.362Z,4.93
2018-02-02T03:31:38.110Z,5.10
2018-02-02T03:34:05.626Z,5.07
2018-02-02T03:36:34.064Z,4.67
2018-02-02T03:39:01.930Z,4.77
2018-02-02T03:41:29.694Z,4.97
2018-02-02T03:43:57.506Z,5.30
2018-02-02T03:46:25.943Z,5.23
2018-02-02T03:48:53.546Z,4.60
2018-02-02T03:51:22.186Z,6.20
2018-02-02T03:53:49.798Z,5.43
2018-02-02T03:56:18.095Z,5.60
2018-02-02T03:58:45.784Z,4.60
2018-02-02T04:01:13.752Z,4.83
2018-02-02T04:03:41.828Z,4.80
2018-02-02T04:06:09.383Z,4.77
2018-02-02T04:08:36.994Z,5.13
2018-02-02T04:11:05.466Z,4.80
2018-02-02T04:13:33.804Z,6.43
2018-02-02T04:16:01.467Z,5.90
2018-02-02T04:18:29.434Z,5.90
2018-02-02T04:20:57.077Z,5.13
2018-02-02T04:23:24.798Z,5.93
2018-02-02T04:25:53.282Z,4.87
2018-02-02T04:28:21.820Z,5.87
2018-02-02T04:30:49.689Z,5.30
2018-02-02T04:33:17.348Z,5.33
2018-02-02T04:35:45.239Z,5.23
2018-02-02T04:38:12.798Z,4.67
2018-02-02T04:40:40.639Z,5.10
2018-02-02T04:43:08.346Z,4.60
2018-02-02T04:45:36.105Z,4.43
2018-02-02T04:48:04.651Z,4.80
2018-02-02T04:50:32.312Z,5.30
2018-02-02T04:52:59.863Z,5.17
2018-02-02T04:55:27.533Z,4.73
2018-02-02T04:57:55.399Z,5.00
2018-02-02T05:00:23.060Z,5.17
2018-02-02T05:02:50.761Z,4.30
2018-02-02T05:05:18.526Z,4.23
2018-02-02T05:07:46.351Z,5.00
2018-02-02T05:10:14.057Z,4.80
2018-02-02T05:12:42.597Z,4.73
2018-02-02T05:15:10.190Z,5.40
2018-02-02T05:17:37.858Z,4.73
2018-02-02T05:20:05.552Z,4.67
2018-02-02T05:22:33.178Z,5.30
2018-02-02T05:25:00.695Z,4.50
2018-02-02T05:27:28.567Z,5.37
2018-02-02T05:29:56.536Z,4.10
2018-02-02T05:32:24.299Z,5.10
2018-02-02T05:34:52.064Z,4.90
2018-02-02T05:37:20.033Z,5.37
2018-02-02T05:39:47.796Z,5.47
2018-02-02T05:42:15.560Z,4.93
2018-02-02T05:44:43.304Z,5.10
2018-02-02T05:47:10.870Z,5.77
2018-02-02T05:49:38.486Z,6.63
2018-02-02T05:52:07.026Z,5.70
2018-02-02T05:54:34.790Z,5.47
2018-02-02T05:57:02.338Z,5.43
2018-02-02T05:59:29.925Z,5.60
2018-02-02T06:01:57.775Z,4.93
2018-02-02T06:04:25.334Z,5.00
2018-02-02T06:06:53.098Z,5.97
2018-02-02T06:09:20.718Z,4.50
2018-02-02T06:11:49.240Z,5.10
2018-02-02T06:14:16.782Z,4.97
2018-02-02T06:16:44.508Z,4.87
2018-02-02T06:19:38.651Z,5.17
2018-02-02T06:22:08.298Z,5.30
2018-02-02T06:24:36.765Z,5.03
2018-02-02T06:27:04.380Z,5.03
2018-02-02T06:29:32.057Z,5.50
2018-02-02T06:31:59.578Z,5.63
2018-02-02T06:34:27.089Z,5.23
2018-02-02T06:37:00.615Z,5.20
2018-02-02T06:39:29.037Z,5.30
2018-02-02T06:41:56.650Z,5.00
2018-02-02T06:44:24.310Z,4.97
2018-02-02T06:46:52.140Z,4.60
2018-02-02T06:49:19.849Z,4.97
2018-02-02T06:51:48.282Z,4.53
2018-02-02T06:54:16.046Z,4.40
2018-02-02T06:56:43.750Z,4.50
2018-02-02T06:59:12.393Z,5.37
2018-02-02T07:01:40.098Z,4.67
2018-02-02T07:04:07.921Z,4.33
2018-02-02T07:06:35.514Z,5.60
2018-02-02T07:09:03.248Z,4.97
2018-02-02T07:11:30.783Z,5.50
2018-02-02T07:13:58.510Z,5.30
2018-02-02T07:16:26.989Z,6.80
2018-02-02T07:18:55.293Z,5.37
2018-02-02T07:21:23.144Z,4.50
2018-02-02T07:23:50.789Z,4.37
2018-02-02T07:26:18.617Z,4.97
2018-02-02T07:28:46.381Z,4.63
2018-02-02T07:31:14.086Z,5.00
2018-02-02T07:33:42.445Z,4.43
2018-02-02T07:36:10.132Z,5.10
2018-02-02T07:38:38.606Z,4.60
2018-02-02T07:41:06.911Z,4.37
2018-02-02T07:43:35.423Z,4.87
2018-02-02T07:46:03.126Z,4.10
2018-02-02T07:48:30.849Z,4.77
2018-02-02T07:50:58.613Z,4.30
2018-02-02T07:53:26.378Z,4.80
2018-02-02T07:55:53.966Z,4.40
2018-02-02T07:58:21.599Z,4.70
2018-02-02T08:00:54.934Z,5.30
2018-02-02T08:03:22.474Z,5.20
2018-02-02T08:05:50.158Z,4.63
2018-02-02T08:08:18.638Z,5.13
2018-02-02T08:10:47.075Z,4.90
2018-02-02T08:13:14.735Z,4.60
2018-02-02T08:15:42.447Z,5.07
2018-02-02T08:18:10.982Z,4.87
2018-02-02T08:20:38.643Z,5.00
2018-02-02T08:23:07.124Z,4.57
2018-02-02T08:25:34.887Z,4.53
2018-02-02T08:28:02.652Z,4.90
2018-02-02T08:30:30.313Z,4.40
2018-02-02T08:32:58.022Z,5.10
2018-02-02T08:35:26.456Z,6.10
2018-02-02T08:37:54.162Z,5.50
2018-02-02T08:40:22.703Z,5.33
2018-02-02T08:42:50.238Z,5.17
2018-02-02T08:45:17.854Z,5.23
2018-02-02T08:47:45.685Z,4.77
2018-02-02T08:50:13.652Z,6.50
2018-02-02T08:52:41.316Z,6.77
2018-02-02T08:55:09.119Z,13.40
2018-02-02T08:57:36.947Z,6.17
2018-02-02T09:00:04.759Z,5.60
2018-02-02T09:02:33.294Z,5.43
2018-02-02T09:05:00.822Z,5.67
2018-02-02T09:07:28.543Z,6.83
2018-02-02T09:09:56.058Z,5.37
2018-02-02T09:12:23.670Z,5.73
2018-02-02T09:14:51.191Z,6.67
2018-02-02T09:17:18.862Z,6.60
2018-02-02T09:19:46.554Z,5.43
2018-02-02T09:22:14.382Z,5.63
2018-02-02T09:24:42.046Z,6.17
2018-02-02T09:27:09.296Z,5.57
2018-02-02T09:29:37.002Z,6.03
2018-02-02T09:32:05.541Z,6.07
2018-02-02T09:34:33.246Z,5.77
2018-02-02T09:37:01.685Z,5.93
2018-02-02T09:39:29.653Z,6.30
2018-02-02T09:41:57.539Z,6.40
2018-02-02T09:44:25.170Z,6.53
2018-02-02T09:46:52.944Z,5.80
2018-02-02T09:49:20.607Z,5.80
2018-02-02T09:51:48.370Z,6.00
2018-02-02T09:54:16.134Z,6.10
2018-02-02T09:56:44.001Z,6.63
2018-02-02T09:59:11.767Z,6.43
2018-02-02T10:01:39.341Z,7.10
2018-02-02T10:04:06.930Z,6.70
2018-02-02T10:06:35.467Z,6.30
2018-02-02T10:09:03.333Z,5.67
2018-02-02T10:11:31.098Z,5.87
2018-02-02T10:13:58.759Z,6.30
2018-02-02T10:16:26.318Z,5.70
2018-02-02T10:18:53.980Z,5.67
2018-02-02T10:21:21.847Z,4.90
2018-02-02T10:23:49.508Z,5.27
2018-02-02T10:26:17.273Z,5.60
2018-02-02T10:28:44.978Z,5.43
2018-02-02T10:31:13.310Z,5.20
2018-02-02T10:33:40.975Z,6.57
2018-02-02T10:36:08.636Z,5.43
2018-02-02T10:38:36.399Z,5.33
2018-02-02T10:41:04.061Z,5.43
2018-02-02T10:43:31.927Z,7.67
2018-02-02T10:45:59.589Z,10.43
2018-02-02T10:48:27.455Z,5.13
2018-02-02T10:50:55.186Z,4.83
2018-02-02T10:53:22.926Z,4.67
2018-02-02T10:55:51.409Z,4.77
2018-02-02T10:58:19.742Z,4.53
2018-02-02T11:00:53.242Z,4.10
2018-02-02T11:03:35.790Z,4.00
2018-02-02T11:06:03.413Z,3.93
2018-02-02T11:08:31.073Z,4.23
2018-02-02T11:10:58.780Z,5.70
2018-02-02T11:13:27.117Z,4.50
2018-02-02T11:15:54.819Z,4.03
2018-02-02T11:18:23.102Z,4.77
2018-02-02T11:20:51.532Z,3.80
2018-02-02T11:23:19.500Z,4.77
2018-02-02T11:25:47.123Z,4.00
2018-02-02T11:28:14.811Z,5.00
2018-02-02T11:30:42.690Z,4.30
2018-02-02T11:33:10.456Z,4.10
2018-02-02T11:35:38.423Z,3.80
2018-02-02T11:38:06.187Z,4.10
2018-02-02T11:40:33.891Z,3.63
2018-02-02T11:43:02.432Z,3.63
2018-02-02T11:45:30.138Z,3.50
2018-02-02T11:47:58.677Z,3.43
2018-02-02T11:50:26.441Z,4.37
2018-02-02T11:52:54.069Z,4.07
2018-02-02T11:55:21.662Z,3.63
2018-02-02T11:57:49.366Z,3.70
2018-02-02T12:00:17.854Z,3.23
2018-02-02T12:02:46.251Z,3.50
2018-02-02T12:05:13.854Z,3.10
2018-02-02T12:07:41.506Z,3.30
2018-02-02T12:10:09.373Z,2.70
2018-02-02T12:12:37.239Z,2.43
2018-02-02T12:15:04.901Z,2.80
2018-02-02T12:17:32.562Z,3.40
2018-02-02T12:20:00.844Z,2.17
2018-02-02T12:22:30.482Z,2.70
2018-02-02T12:24:58.017Z,2.80
2018-02-02T12:30:42.628Z,4.47
2018-02-02T12:33:17.722Z,2.90
2018-02-02T12:35:58.002Z,2.80
2018-02-02T12:38:25.790Z,2.73
2018-02-02T12:40:54.221Z,2.90
2018-02-02T12:43:21.984Z,2.63
2018-02-02T12:45:49.690Z,2.90
2018-02-02T12:48:29.126Z,2.87
2018-02-02T12:51:01.645Z,2.80
2018-02-02T12:53:30.347Z,2.63
2018-02-02T12:55:57.903Z,3.00
2018-02-02T12:58:25.572Z,2.33
2018-02-02T13:00:53.274Z,2.03
2018-02-02T13:03:21.717Z,2.63
2018-02-02T13:05:49.420Z,3.10
2018-02-02T13:08:17.853Z,2.80
2018-02-02T13:10:45.617Z,2.20
2018-02-02T13:13:13.325Z,2.33
2018-02-02T13:15:41.685Z,2.30
2018-02-02T13:18:09.524Z,2.27
2018-02-02T13:20:37.288Z,2.37
2018-02-02T13:23:04.990Z,2.37
2018-02-02T13:25:32.654Z,3.77
2018-02-02T13:28:00.998Z,2.33
2018-02-02T13:30:28.694Z,2.43
2018-02-02T13:32:56.974Z,2.50
2018-02-02T13:35:25.453Z,2.47
2018-02-02T13:37:53.173Z,2.83
2018-02-02T13:40:21.243Z,2.93
2018-02-02T13:42:49.009Z,3.00
2018-02-02T13:45:16.977Z,3.30
2018-02-02T13:47:44.741Z,3.27
2018-02-02T13:50:12.447Z,3.10
2018-02-02T13:52:40.889Z,3.10
2018-02-02T13:55:08.554Z,3.10
2018-02-02T13:57:36.250Z,2.67
2018-02-02T14:00:04.693Z,2.50
2018-02-02T14:02:32.447Z,2.70
2018-02-02T14:04:59.993Z,2.03
2018-02-02T14:07:27.775Z,3.13
2018-02-02T14:09:55.539Z,9.50
2018-02-02T14:12:23.509Z,3.70
2018-02-02T14:14:51.138Z,3.13
2018-02-02T14:17:18.831Z,3.27
2018-02-02T14:19:46.541Z,2.30
2018-02-02T14:22:14.974Z,2.50
2018-02-02T14:24:42.738Z,2.17
2018-02-02T14:27:10.442Z,2.57
2018-02-02T14:29:38.862Z,2.40
2018-02-02T14:32:06.478Z,2.20
2018-02-02T14:34:34.204Z,2.43
2018-02-02T14:37:01.968Z,2.00
2018-02-02T14:39:29.630Z,4.13
2018-02-02T14:41:57.183Z,5.40
2018-02-02T14:44:24.953Z,2.83
2018-02-02T14:46:52.702Z,2.80
2018-02-02T14:49:20.378Z,2.97
2018-02-02T14:51:48.041Z,2.90
2018-02-02T14:54:15.702Z,2.53
2018-02-02T14:56:43.364Z,2.63
2018-02-02T14:59:11.038Z,2.60
2018-02-02T15:01:38.687Z,2.53
2018-02-02T15:04:06.210Z,2.50
2018-02-02T15:06:34.010Z,2.30
2018-02-02T15:09:01.682Z,2.63
2018-02-02T15:11:29.370Z,2.83
2018-02-02T15:13:56.998Z,2.70
2018-02-02T15:16:24.701Z,2.60
2018-02-02T15:18:52.318Z,2.53
2018-02-02T15:21:19.842Z,2.70
2018-02-02T15:23:47.540Z,2.60
2018-02-02T15:26:15.314Z,2.40
2018-02-02T15:28:43.068Z,2.33
2018-02-02T15:31:10.934Z,2.40
2018-02-02T15:33:38.478Z,3.10
2018-02-02T15:36:06.005Z,3.20
2018-02-02T15:38:34.533Z,3.30
2018-02-02T15:41:02.242Z,3.07
2018-02-02T15:43:30.613Z,2.97
2018-02-02T15:45:58.439Z,2.50
2018-02-02T15:48:26.145Z,2.60
2018-02-02T15:50:54.583Z,2.53
2018-02-02T15:53:22.346Z,2.73
2018-02-02T15:55:49.918Z,3.00
2018-02-02T15:58:17.772Z,3.03
2018-02-02T16:00:45.435Z,2.90
2018-02-02T16:03:13.096Z,2.53
2018-02-02T16:05:40.802Z,2.63
2018-02-02T16:08:08.624Z,2.57
2018-02-02T16:10:36.138Z,3.33
2018-02-02T16:13:04.776Z,3.33
2018-02-02T16:15:32.684Z,2.20
2018-02-02T16:18:00.341Z,2.83
2018-02-02T16:20:28.654Z,2.83
2018-02-02T16:22:57.359Z,3.03
2018-02-02T16:25:25.062Z,2.83
2018-02-02T16:27:52.887Z,3.17
2018-02-02T16:30:20.650Z,4.57
2018-02-02T16:32:48.619Z,6.93
2018-02-02T16:35:16.137Z,3.40
2018-02-02T16:37:44.558Z,3.73
2018-02-02T16:40:12.362Z,3.43
2018-02-02T16:42:40.187Z,2.30
2018-02-02T16:45:07.930Z,2.70
2018-02-02T16:47:35.716Z,3.33
2018-02-02T16:50:03.480Z,3.37
2018-02-02T16:52:31.087Z,3.30
2018-02-02T16:54:59.566Z,3.70
2018-02-02T16:57:27.905Z,4.17
2018-02-02T16:59:55.502Z,4.50
2018-02-02T17:02:23.325Z,4.20
2018-02-02T17:04:51.310Z,5.20
2018-02-02T17:07:19.175Z,4.40
2018-02-02T17:09:46.865Z,5.33
2018-02-02T17:12:15.151Z,5.37
2018-02-02T17:14:43.621Z,6.30
2018-02-02T17:17:12.162Z,4.90
2018-02-02T17:19:40.029Z,4.77
2018-02-02T17:22:07.895Z,4.33
2018-02-02T17:24:35.457Z,4.73
2018-02-02T17:27:03.320Z,4.20
2018-02-02T17:29:30.976Z,4.20
2018-02-02T17:31:58.643Z,4.00
2018-02-02T17:34:26.154Z,4.53
2018-02-02T17:36:54.786Z,4.17
2018-02-02T17:39:22.448Z,4.47
2018-02-02T17:41:49.962Z,4.17
2018-02-02T17:44:18.290Z,4.00
2018-02-02T17:46:45.986Z,4.20
2018-02-02T17:49:13.646Z,3.90
2018-02-02T17:51:41.722Z,3.57
2018-02-02T17:54:10.202Z,3.50
2018-02-02T17:56:38.618Z,3.33
2018-02-02T17:59:06.187Z,15.40
2018-02-02T18:01:35.499Z,6.73
2018-02-02T18:04:03.262Z,7.00
2018-02-02T18:06:30.854Z,9.07
2018-02-02T18:08:58.723Z,8.73
2018-02-02T18:11:27.170Z,3.70
2018-02-02T18:13:54.831Z,2.90
2018-02-02T18:16:22.801Z,2.40
2018-02-02T18:18:50.467Z,2.77
2018-02-02T18:21:18.124Z,3.37
2018-02-02T18:23:45.830Z,2.73
2018-02-02T18:26:14.162Z,3.53
2018-02-02T18:28:41.714Z,4.13
2018-02-02T18:31:09.425Z,4.60
2018-02-02T18:33:37.148Z,6.70
2018-02-02T18:36:04.854Z,8.40
2018-02-02T18:38:33.291Z,6.77
2018-02-02T18:41:00.894Z,5.37
2018-02-02T18:43:29.433Z,3.53
2018-02-02T18:45:57.030Z,3.37
2018-02-02T18:48:24.586Z,3.40
2018-02-02T18:50:52.214Z,3.90
2018-02-02T18:53:20.080Z,3.80
2018-02-02T18:55:47.622Z,3.00
2018-02-02T18:58:15.490Z,3.90
2018-02-02T19:00:43.238Z,3.93
2018-02-02T19:03:10.994Z,9.43
2018-02-02T19:05:38.511Z,3.80
2018-02-02T19:08:06.118Z,3.27
2018-02-02T19:10:33.858Z,2.80
2018-02-02T19:13:02.490Z,3.93
2018-02-02T19:15:30.237Z,4.87
2018-02-02T19:17:57.986Z,4.70
2018-02-02T19:20:26.408Z,4.20
2018-02-02T19:22:54.010Z,4.00
2018-02-02T19:25:22.526Z,3.90
2018-02-02T19:27:50.266Z,3.40
2018-02-02T19:30:18.557Z,2.97
2018-02-02T19:32:46.394Z,3.07
2018-02-02T19:35:15.155Z,3.03
2018-02-02T19:37:43.057Z,3.40
2018-02-02T19:40:11.713Z,4.20
2018-02-02T19:42:39.614Z,3.63
2018-02-02T19:45:08.250Z,3.30
2018-02-02T19:47:36.121Z,6.50
2018-02-02T19:50:03.871Z,9.13
2018-02-02T19:52:31.614Z,4.63
2018-02-02T19:54:59.366Z,4.83
2018-02-02T19:57:27.230Z,4.80
2018-02-02T19:59:55.096Z,5.47
2018-02-02T20:02:22.845Z,5.90
2018-02-02T20:04:51.190Z,4.13
2018-02-02T20:07:18.939Z,4.50
2018-02-02T20:09:46.814Z,4.37
2018-02-02T20:12:14.719Z,4.30
2018-02-02T20:14:42.458Z,3.00
2018-02-02T20:17:09.972Z,3.20
2018-02-02T20:19:37.826Z,4.57
2018-02-02T20:22:06.268Z,4.57
2018-02-02T20:24:33.826Z,3.70
2018-02-02T20:27:01.665Z,3.53
2018-02-02T20:29:29.406Z,3.40
2018-02-02T20:31:57.170Z,3.90
2018-02-02T20:34:24.913Z,4.77
2018-02-02T20:36:53.541Z,4.60
2018-02-02T20:39:21.407Z,4.67
2018-02-02T20:41:48.926Z,4.23
2018-02-02T20:44:17.514Z,4.80
2018-02-02T20:46:45.258Z,4.47
2018-02-02T20:49:13.754Z,4.83
2018-02-02T20:51:42.050Z,4.50
2018-02-02T20:54:09.806Z,3.80
2018-02-02T20:56:37.342Z,3.83
2018-02-02T20:59:05.995Z,4.70
2018-02-02T21:01:34.302Z,5.60
2018-02-02T21:04:02.818Z,4.57
2018-02-02T21:06:30.337Z,5.70
2018-02-02T21:08:57.910Z,6.87
2018-02-02T21:11:25.398Z,4.13
2018-02-02T21:13:53.261Z,3.93
2018-02-02T21:16:20.778Z,3.93
2018-02-02T21:18:48.302Z,4.17
2018-02-02T21:21:15.913Z,4.00
2018-02-02T21:23:44.600Z,4.40
2018-02-02T21:26:13.238Z,4.70
2018-02-02T21:28:41.114Z,3.77
2018-02-02T21:31:08.862Z,1.70
2018-02-02T21:33:36.738Z,3.43
2018-02-02T21:36:04.551Z,4.27
2018-02-02T21:38:32.422Z,4.40
2018-02-02T21:41:00.294Z,3.33
2018-02-02T21:43:28.153Z,3.50
2018-02-02T21:45:55.948Z,4.40
2018-02-02T21:48:23.834Z,4.10
2018-02-02T21:50:51.586Z,3.90
2018-02-02T21:53:19.446Z,3.93
2018-02-02T21:55:47.197Z,4.17
2018-02-02T21:58:15.050Z,3.77
2018-02-02T22:00:42.922Z,4.23
2018-02-02T22:03:10.778Z,3.70
2018-02-02T22:05:38.718Z,4.00
2018-02-02T22:08:06.594Z,5.60
2018-02-02T22:10:35.238Z,8.80
2018-02-02T22:13:03.117Z,6.10
2018-02-02T22:15:30.666Z,6.17
2018-02-02T22:17:58.434Z,6.13
2018-02-02T22:20:26.488Z,4.47
2018-02-02T22:22:54.086Z,4.27
2018-02-02T22:25:22.002Z,4.87
2018-02-02T22:27:49.775Z,4.83
2018-02-02T22:30:17.535Z,5.47
2018-02-02T22:32:45.179Z,6.03
2018-02-02T22:35:12.854Z,6.60
2018-02-02T22:37:40.706Z,8.57
2018-02-02T22:40:08.582Z,4.20
2018-02-02T22:42:36.418Z,3.20
2018-02-02T22:45:04.934Z,3.70
2018-02-02T22:47:32.611Z,3.90
2018-02-02T22:50:00.470Z,4.20
2018-02-02T22:52:28.358Z,4.27
2018-02-02T22:54:56.226Z,3.73
2018-02-02T22:57:23.974Z,3.67
2018-02-02T22:59:51.834Z,4.00
2018-02-02T23:02:19.550Z,4.43
2018-02-02T23:04:48.138Z,3.97
2018-02-02T23:07:16.430Z,3.80
2018-02-02T23:09:44.190Z,3.50
2018-02-02T23:12:12.542Z,4.23
2018-02-02T23:14:40.398Z,3.47
2018-02-02T23:17:08.251Z,3.80
2018-02-02T23:19:36.004Z,3.60
2018-02-02T23:22:03.754Z,4.57
2018-02-02T23:24:31.746Z,5.13
2018-02-02T23:26:59.627Z,12.03
2018-02-02T23:29:27.378Z,8.40
2018-02-02T23:31:54.893Z,6.17
2018-02-02T23:34:22.642Z,5.30
2018-02-02T23:36:51.302Z,4.90
2018-02-02T23:39:18.984Z,4.50
2018-02-02T23:41:47.273Z,4.83
2018-02-02T23:44:15.730Z,4.60
2018-02-02T23:46:43.494Z,5.07
2018-02-02T23:49:11.234Z,4.50
2018-02-02T23:51:38.981Z,4.93
2018-02-02T23:54:06.678Z,4.90
2018-02-02T23:56:34.358Z,5.63
2018-02-02T23:59:02.950Z,5.10
